Terminal Aerodrome Forecast
Issued by NWS

Home | Current Version | Previous Version | Text Only | Print | Product List | Glossary On
Versions: 1 2 3 4 5 6 7 8 9 10 11 12 13 14 15 16 17
000
FTUS46 KHNX 181134
TAFMCE
TAF
KMCE 181134Z 1812/1912 11006KT P6SM BKN060 OVC080
      TEMPO 1814/1818 4SM BR
     FM182000 14005KT P6SM SCT060 BKN250
     FM190300 VRB03KT 4SM BR BKN100
     FM190800 12005KT 2SM BR BKN050=

USA.gov is the U.S. government's official web portal to all federal, state and local government web resources and services.